createdAt,value
2022-12-25T00:00:25.183Z,49.60
2022-12-25T00:02:27.073Z,49.60
2022-12-25T00:04:28.928Z,49.50
2022-12-25T00:06:30.681Z,49.50
2022-12-25T00:08:32.799Z,49.60
2022-12-25T00:10:36.458Z,49.50
2022-12-25T00:12:41.639Z,49.50
2022-12-25T00:14:43.283Z,49.60
2022-12-25T00:16:45.062Z,49.50
2022-12-25T00:18:47.977Z,49.50
2022-12-25T00:21:00.491Z,49.60
2022-12-25T00:23:02.106Z,49.60
2022-12-25T00:25:04.045Z,49.60
2022-12-25T00:27:05.730Z,49.60
2022-12-25T00:29:07.412Z,49.60
2022-12-25T00:31:12.361Z,49.60
2022-12-25T00:33:14.321Z,49.60
2022-12-25T00:35:16.116Z,49.60
2022-12-25T00:37:17.908Z,49.60
2022-12-25T00:39:19.663Z,49.60
2022-12-25T00:41:41.969Z,49.60
2022-12-25T00:43:43.843Z,49.60
2022-12-25T00:45:58.070Z,49.60
2022-12-25T00:47:59.908Z,49.60
2022-12-25T00:50:01.694Z,49.60
2022-12-25T00:52:04.826Z,49.60
2022-12-25T00:54:06.582Z,49.60
2022-12-25T00:56:08.326Z,49.60
2022-12-25T00:58:09.913Z,49.60
2022-12-25T01:00:12.803Z,49.60
2022-12-25T01:02:23.365Z,49.60
2022-12-25T01:04:25.084Z,49.60
2022-12-25T01:06:27.128Z,49.60
2022-12-25T01:08:35.014Z,49.60
2022-12-25T01:10:36.779Z,49.60
2022-12-25T01:12:41.231Z,49.60
2022-12-25T01:14:42.871Z,49.60
2022-12-25T01:16:44.554Z,49.60
2022-12-25T01:18:46.635Z,49.60
2022-12-25T01:20:48.481Z,49.60
2022-12-25T01:22:50.077Z,49.60
2022-12-25T01:24:51.771Z,49.60
2022-12-25T01:26:54.225Z,49.60
2022-12-25T01:28:55.875Z,49.60
2022-12-25T01:30:57.546Z,49.60
2022-12-25T01:32:59.249Z,49.60
2022-12-25T01:35:00.998Z,49.60
2022-12-25T01:37:02.917Z,49.60
2022-12-25T01:39:05.252Z,49.60
2022-12-25T01:41:07.001Z,49.60
2022-12-25T01:43:27.610Z,49.60
2022-12-25T01:45:43.635Z,49.60
2022-12-25T01:47:45.434Z,49.60
2022-12-25T01:49:50.508Z,49.60
2022-12-25T01:51:56.172Z,49.60
2022-12-25T01:54:00.873Z,49.60
2022-12-25T01:56:07.288Z,49.60
2022-12-25T01:58:09.400Z,49.60
2022-12-25T02:00:12.132Z,49.60
2022-12-25T02:02:14.746Z,49.50
2022-12-25T02:04:40.296Z,49.60
2022-12-25T02:06:42.331Z,49.60
2022-12-25T02:08:43.987Z,49.60
2022-12-25T02:10:45.917Z,49.60
2022-12-25T02:12:48.800Z,49.50
2022-12-25T02:14:52.121Z,49.50
2022-12-25T02:17:05.940Z,49.60
2022-12-25T02:19:29.207Z,49.50
2022-12-25T02:21:49.165Z,49.60
2022-12-25T02:24:09.226Z,49.50
2022-12-25T02:26:32.711Z,49.50
2022-12-25T02:28:48.855Z,49.50
2022-12-25T02:30:56.340Z,49.60
2022-12-25T02:33:19.915Z,49.60
2022-12-25T02:35:28.305Z,49.60
2022-12-25T02:37:42.261Z,49.60
2022-12-25T02:40:25.699Z,49.50
2022-12-25T02:42:55.413Z,49.50
2022-12-25T02:45:15.497Z,49.60
2022-12-25T02:47:36.893Z,49.50
2022-12-25T02:49:58.805Z,49.50
2022-12-25T02:52:38.149Z,49.50
2022-12-25T02:55:03.966Z,49.50
2022-12-25T02:57:27.968Z,49.50
2022-12-25T02:59:51.333Z,49.50
2022-12-25T03:02:12.733Z,49.50
2022-12-25T03:04:37.103Z,49.50
2022-12-25T03:06:45.758Z,49.50
2022-12-25T03:08:52.413Z,49.50
2022-12-25T03:11:24.866Z,49.60
2022-12-25T03:13:34.352Z,50.20
2022-12-25T03:15:54.756Z,49.50
2022-12-25T03:18:01.343Z,49.50
2022-12-25T03:20:22.825Z,49.50
2022-12-25T03:22:47.768Z,49.50
2022-12-25T03:25:08.736Z,50.20
2022-12-25T03:27:10.370Z,49.50
2022-12-25T03:29:32.178Z,49.50
2022-12-25T03:31:50.142Z,49.50
2022-12-25T03:34:30.475Z,49.50
2022-12-25T03:37:06.624Z,49.50
2022-12-25T03:39:46.115Z,49.50
2022-12-25T03:42:11.663Z,49.50
2022-12-25T03:44:48.905Z,49.50
2022-12-25T03:47:28.261Z,49.50
2022-12-25T03:49:59.908Z,49.50
2022-12-25T03:52:22.885Z,49.60
2022-12-25T03:54:46.741Z,49.60
2022-12-25T03:57:12.661Z,49.50
2022-12-25T03:59:36.844Z,49.50
2022-12-25T04:01:57.396Z,49.50
2022-12-25T04:04:17.704Z,49.50
2022-12-25T04:06:38.129Z,49.50
2022-12-25T04:08:58.665Z,49.50
2022-12-25T04:11:19.146Z,49.50
2022-12-25T04:13:39.463Z,49.50
2022-12-25T04:16:01.830Z,49.50
2022-12-25T04:18:22.239Z,49.50
2022-12-25T04:20:42.677Z,49.40
2022-12-25T04:23:03.093Z,49.40
2022-12-25T04:25:23.633Z,49.50
2022-12-25T04:27:44.242Z,49.40
2022-12-25T04:30:04.733Z,49.40
2022-12-25T04:32:25.146Z,49.40
2022-12-25T04:34:45.405Z,49.40
2022-12-25T04:36:47.059Z,49.40
2022-12-25T04:38:48.679Z,49.40
2022-12-25T04:40:50.270Z,49.40
2022-12-25T04:42:52.364Z,49.40
2022-12-25T04:44:53.991Z,49.40
2022-12-25T04:46:55.868Z,49.40
2022-12-25T04:48:57.615Z,49.40
2022-12-25T04:51:09.112Z,49.30
2022-12-25T04:53:10.768Z,49.40
2022-12-25T04:55:12.550Z,49.30
2022-12-25T04:57:14.209Z,49.30
2022-12-25T04:59:15.873Z,49.40
2022-12-25T05:01:17.751Z,49.40
2022-12-25T05:03:19.490Z,49.30
2022-12-25T05:05:21.277Z,49.40
2022-12-25T05:07:23.036Z,49.30
2022-12-25T05:09:26.208Z,49.30
2022-12-25T05:11:27.877Z,49.30
2022-12-25T05:13:29.479Z,49.30
2022-12-25T05:15:31.149Z,49.20
2022-12-25T05:17:32.844Z,49.20
2022-12-25T05:19:34.763Z,49.20
2022-12-25T05:21:36.651Z,49.20
2022-12-25T05:23:38.557Z,49.10
2022-12-25T05:25:40.769Z,49.10
2022-12-25T05:27:42.388Z,49.10
2022-12-25T05:29:44.125Z,49.00
2022-12-25T05:31:45.856Z,49.00
2022-12-25T05:33:51.535Z,49.00
2022-12-25T05:35:53.179Z,49.10
2022-12-25T05:37:54.826Z,49.00
2022-12-25T05:39:56.500Z,49.00
2022-12-25T05:41:58.180Z,49.00
2022-12-25T05:43:59.856Z,48.90
2022-12-25T05:46:10.247Z,48.90
2022-12-25T05:48:12.057Z,48.90
2022-12-25T05:50:13.784Z,48.90
2022-12-25T05:52:15.517Z,48.90
2022-12-25T05:54:17.165Z,48.90
2022-12-25T05:56:18.889Z,48.80
2022-12-25T05:58:20.520Z,48.80
2022-12-25T06:00:22.152Z,48.80
2022-12-25T06:02:24.978Z,48.70
2022-12-25T06:04:27.110Z,48.70
2022-12-25T06:06:28.763Z,48.70
2022-12-25T06:08:30.406Z,48.60
2022-12-25T06:10:32.110Z,48.60
2022-12-25T06:12:33.761Z,48.60
2022-12-25T06:14:38.284Z,48.60
2022-12-25T06:16:40.079Z,49.20
2022-12-25T06:18:48.985Z,48.40
2022-12-25T06:20:50.727Z,48.40
2022-12-25T06:22:53.472Z,48.40
2022-12-25T06:24:55.095Z,48.40
2022-12-25T06:26:56.806Z,48.40
2022-12-25T06:28:58.538Z,48.40
2022-12-25T06:31:06.275Z,48.40
2022-12-25T06:33:07.987Z,48.80
2022-12-25T06:35:09.685Z,49.00
2022-12-25T06:37:11.280Z,48.90
2022-12-25T06:39:12.880Z,49.10
2022-12-25T06:41:17.125Z,49.50
2022-12-25T06:43:18.867Z,49.60
2022-12-25T06:45:20.625Z,49.50
2022-12-25T06:47:22.220Z,49.50
2022-12-25T06:49:24.560Z,49.20
2022-12-25T06:51:29.266Z,49.50
2022-12-25T06:53:38.862Z,49.50
2022-12-25T06:55:42.378Z,49.60
2022-12-25T06:57:44.025Z,49.60
2022-12-25T06:59:48.496Z,49.50
2022-12-25T07:01:57.298Z,49.60
2022-12-25T07:04:03.768Z,49.40
2022-12-25T07:06:05.668Z,49.80
2022-12-25T07:08:07.339Z,49.60
2022-12-25T07:10:09.427Z,49.60
2022-12-25T07:12:18.521Z,49.40
2022-12-25T07:14:24.384Z,49.70
2022-12-25T07:16:26.384Z,49.30
2022-12-25T07:18:29.240Z,49.20
2022-12-25T07:20:30.981Z,49.30
2022-12-25T07:22:32.636Z,49.60
2022-12-25T07:24:34.277Z,49.30
2022-12-25T07:26:35.953Z,49.30
2022-12-25T07:28:38.202Z,49.20
2022-12-25T07:30:39.823Z,49.10
2022-12-25T07:32:44.368Z,49.10
2022-12-25T07:34:50.047Z,49.20
2022-12-25T07:36:52.226Z,49.60
2022-12-25T07:38:53.838Z,49.40
2022-12-25T07:40:56.323Z,49.40
2022-12-25T07:42:58.013Z,50.40
2022-12-25T07:44:59.627Z,49.80
2022-12-25T07:47:01.319Z,49.70
2022-12-25T07:49:03.018Z,48.60
2022-12-25T07:51:07.079Z,49.80
2022-12-25T07:53:08.740Z,49.70
2022-12-25T07:55:10.499Z,50.10
2022-12-25T07:57:12.207Z,47.90
2022-12-25T07:59:14.324Z,47.90
2022-12-25T08:01:25.092Z,48.30
2022-12-25T08:03:27.048Z,49.00
2022-12-25T08:05:29.194Z,48.90
2022-12-25T08:07:30.823Z,48.90
2022-12-25T08:09:32.512Z,48.90
2022-12-25T08:11:34.299Z,48.90
2022-12-25T08:13:36.590Z,48.90
2022-12-25T08:15:38.231Z,48.90
2022-12-25T08:17:40.081Z,49.20
2022-12-25T08:19:41.769Z,49.10
2022-12-25T08:21:43.446Z,49.10
2022-12-25T08:23:48.326Z,49.10
2022-12-25T08:25:50.000Z,49.20
2022-12-25T08:27:51.653Z,49.20
2022-12-25T08:29:53.289Z,49.20
2022-12-25T08:31:55.186Z,49.30
2022-12-25T08:33:59.432Z,49.30
2022-12-25T08:36:07.011Z,49.30
2022-12-25T08:38:08.644Z,49.50
2022-12-25T08:40:10.729Z,49.50
2022-12-25T08:42:12.450Z,49.50
2022-12-25T08:44:14.159Z,49.60
2022-12-25T08:46:15.881Z,49.50
2022-12-25T08:48:17.600Z,49.50
2022-12-25T08:50:19.282Z,49.60
2022-12-25T08:52:20.962Z,49.60
2022-12-25T08:54:22.583Z,49.70
2022-12-25T08:56:24.188Z,49.60
2022-12-25T08:58:26.325Z,49.50
2022-12-25T09:00:27.985Z,49.50
2022-12-25T09:02:29.799Z,49.00
2022-12-25T09:04:31.576Z,48.20
2022-12-25T09:06:33.280Z,48.40
2022-12-25T09:08:35.826Z,47.10
2022-12-25T09:10:37.593Z,48.30
2022-12-25T09:12:39.521Z,48.50
2022-12-25T09:14:41.164Z,48.60
2022-12-25T09:16:42.843Z,48.60
2022-12-25T09:18:44.751Z,48.70
2022-12-25T09:20:46.498Z,48.70
2022-12-25T09:22:48.189Z,48.20
2022-12-25T09:24:50.064Z,48.50
2022-12-25T09:26:51.966Z,48.60
2022-12-25T09:28:53.675Z,48.60
2022-12-25T09:30:55.813Z,48.70
2022-12-25T09:32:57.534Z,48.70
2022-12-25T09:34:59.196Z,48.60
2022-12-25T09:37:01.269Z,48.50
2022-12-25T09:39:03.041Z,48.50
2022-12-25T09:41:26.469Z,48.50
2022-12-25T09:43:32.072Z,48.50
2022-12-25T09:45:38.139Z,48.50
2022-12-25T09:47:44.052Z,48.50
2022-12-25T09:50:03.840Z,48.50
2022-12-25T09:52:11.795Z,48.50
2022-12-25T09:54:22.395Z,49.10
2022-12-25T09:56:27.994Z,48.40
2022-12-25T09:58:32.217Z,48.30
2022-12-25T10:00:49.605Z,48.30
2022-12-25T10:03:09.613Z,48.30
2022-12-25T10:05:29.266Z,48.20
2022-12-25T10:07:55.978Z,48.20
2022-12-25T10:10:15.793Z,48.10
2022-12-25T10:12:35.699Z,48.70
2022-12-25T10:15:01.483Z,48.40
2022-12-25T10:17:44.497Z,48.60
2022-12-25T10:20:05.629Z,48.40
2022-12-25T10:22:20.772Z,48.70
2022-12-25T10:24:40.729Z,48.50
2022-12-25T10:26:42.776Z,48.50
2022-12-25T10:28:55.629Z,48.70
2022-12-25T10:31:03.696Z,48.70
2022-12-25T10:33:05.467Z,48.70
2022-12-25T10:35:11.936Z,48.60
2022-12-25T10:37:13.766Z,48.60
2022-12-25T10:39:21.463Z,48.70
2022-12-25T10:41:54.158Z,48.90
2022-12-25T10:43:57.272Z,48.90
2022-12-25T10:45:59.138Z,49.00
2022-12-25T10:48:08.072Z,48.90
2022-12-25T10:50:11.687Z,48.90
2022-12-25T10:52:28.694Z,49.00
2022-12-25T10:54:33.429Z,49.10
2022-12-25T10:56:35.109Z,49.80
2022-12-25T10:58:36.759Z,49.30
2022-12-25T11:00:38.420Z,49.20
2022-12-25T11:02:41.142Z,49.10
2022-12-25T11:04:43.416Z,49.10
2022-12-25T11:06:45.663Z,49.10
2022-12-25T11:08:53.585Z,49.10
2022-12-25T11:11:07.614Z,49.20
2022-12-25T11:13:20.910Z,49.10
2022-12-25T11:15:34.557Z,49.20
2022-12-25T11:17:36.206Z,49.30
2022-12-25T11:19:37.915Z,49.20
2022-12-25T11:21:39.649Z,49.10
2022-12-25T11:23:49.416Z,49.20
2022-12-25T11:26:06.220Z,49.20
2022-12-25T11:28:11.986Z,49.10
2022-12-25T11:30:16.192Z,49.10
2022-12-25T11:32:27.437Z,49.00
2022-12-25T11:34:42.793Z,49.10
2022-12-25T11:36:52.561Z,49.10
2022-12-25T11:38:54.328Z,48.90
2022-12-25T11:41:00.005Z,48.80
2022-12-25T11:43:50.672Z,48.80
2022-12-25T11:46:07.636Z,48.80
2022-12-25T11:48:18.256Z,48.80
2022-12-25T11:50:35.605Z,48.60
2022-12-25T11:52:40.306Z,48.70
2022-12-25T11:55:10.350Z,48.70
2022-12-25T11:57:12.763Z,48.70
2022-12-25T11:59:18.156Z,48.70
2022-12-25T12:01:34.540Z,48.60
2022-12-25T12:03:38.509Z,48.60
2022-12-25T12:06:04.429Z,48.60
2022-12-25T12:08:06.869Z,48.90
2022-12-25T12:10:19.010Z,48.90
2022-12-25T12:12:36.741Z,48.70
2022-12-25T12:15:19.457Z,49.10
2022-12-25T12:17:21.315Z,49.20
2022-12-25T12:19:31.357Z,48.90
2022-12-25T12:21:32.997Z,49.20
2022-12-25T12:24:06.206Z,48.80
2022-12-25T12:26:16.821Z,48.80
2022-12-25T12:28:45.728Z,48.70
2022-12-25T12:30:58.778Z,48.80
2022-12-25T12:33:03.572Z,48.80
2022-12-25T12:35:22.466Z,48.80
2022-12-25T12:37:36.951Z,49.00
2022-12-25T12:39:40.371Z,49.60
2022-12-25T12:41:49.946Z,50.50
2022-12-25T12:44:00.621Z,50.00
2022-12-25T12:46:33.876Z,50.40
2022-12-25T12:48:41.920Z,50.30
2022-12-25T12:50:43.671Z,48.50
2022-12-25T12:52:45.347Z,48.90
2022-12-25T12:54:57.111Z,49.70
2022-12-25T12:57:04.594Z,50.30
2022-12-25T12:59:09.803Z,50.30
2022-12-25T13:01:27.420Z,50.20
2022-12-25T13:03:34.458Z,50.50
2022-12-25T13:06:02.111Z,50.40
2022-12-25T13:08:47.013Z,50.60
2022-12-25T13:10:51.432Z,50.60
2022-12-25T13:13:00.607Z,50.80
2022-12-25T13:15:02.377Z,51.50
2022-12-25T13:17:07.736Z,51.00
2022-12-25T13:19:16.457Z,51.20
2022-12-25T13:21:22.952Z,51.30
2022-12-25T13:23:36.730Z,51.40
2022-12-25T13:25:39.252Z,51.50
2022-12-25T13:27:40.856Z,51.50
2022-12-25T13:29:42.692Z,51.70
2022-12-25T13:31:44.422Z,51.80
2022-12-25T13:33:58.057Z,51.80
2022-12-25T13:35:59.868Z,51.70
2022-12-25T13:38:02.372Z,49.30
2022-12-25T13:40:07.007Z,48.80
2022-12-25T13:42:11.908Z,48.40
2022-12-25T13:44:19.525Z,48.20
2022-12-25T13:46:26.913Z,48.30
2022-12-25T13:48:28.732Z,48.30
2022-12-25T13:50:32.666Z,48.20
2022-12-25T13:52:37.125Z,48.20
2022-12-25T13:54:39.468Z,48.00
2022-12-25T13:56:56.077Z,47.90
2022-12-25T13:58:58.016Z,49.00
2022-12-25T14:01:02.486Z,50.30
2022-12-25T14:03:07.411Z,50.50
2022-12-25T14:05:37.665Z,50.30
2022-12-25T14:07:41.292Z,50.50
2022-12-25T14:09:43.109Z,50.80
2022-12-25T14:11:48.778Z,50.90
2022-12-25T14:13:54.307Z,50.50
2022-12-25T14:15:57.715Z,49.30
2022-12-25T14:17:59.881Z,49.00
2022-12-25T14:20:07.933Z,49.20
2022-12-25T14:22:22.553Z,49.70
2022-12-25T14:24:26.967Z,50.30
2022-12-25T14:26:33.601Z,50.50
2022-12-25T14:28:37.023Z,50.60
2022-12-25T14:30:43.066Z,50.70
2022-12-25T14:32:50.653Z,51.00
2022-12-25T14:35:03.602Z,51.50
2022-12-25T14:37:07.099Z,51.90
2022-12-25T14:39:34.796Z,52.20
2022-12-25T14:41:42.048Z,52.20
2022-12-25T14:43:55.041Z,52.40
2022-12-25T14:46:02.727Z,52.00
2022-12-25T14:48:25.789Z,51.80
2022-12-25T14:50:40.936Z,51.80
2022-12-25T14:52:44.488Z,52.00
2022-12-25T14:55:07.099Z,51.70
2022-12-25T14:57:18.145Z,51.70
2022-12-25T14:59:28.567Z,51.70
2022-12-25T15:01:39.773Z,51.90
2022-12-25T15:03:41.600Z,51.90
2022-12-25T15:05:43.439Z,51.90
2022-12-25T15:07:45.207Z,51.50
2022-12-25T15:09:46.836Z,51.20
2022-12-25T15:11:55.317Z,51.00
2022-12-25T15:13:57.525Z,51.00
2022-12-25T15:16:08.783Z,50.80
2022-12-25T15:18:11.542Z,50.80
2022-12-25T15:20:13.794Z,50.70
2022-12-25T15:22:15.477Z,50.70
2022-12-25T15:24:18.225Z,50.50
2022-12-25T15:26:20.069Z,50.40
2022-12-25T15:28:21.811Z,50.40
2022-12-25T15:30:23.798Z,50.30
2022-12-25T15:32:25.454Z,50.40
2022-12-25T15:34:28.080Z,50.20
2022-12-25T15:36:30.260Z,50.20
2022-12-25T15:38:36.452Z,50.20
2022-12-25T15:40:38.356Z,50.80
2022-12-25T15:42:41.029Z,51.00
2022-12-25T15:44:43.777Z,51.00
2022-12-25T15:46:46.063Z,51.10
2022-12-25T15:48:47.767Z,51.20
2022-12-25T15:50:49.419Z,51.20
2022-12-25T15:52:51.285Z,51.40
2022-12-25T15:54:54.097Z,51.10
2022-12-25T15:56:58.080Z,49.70
2022-12-25T15:58:59.714Z,48.90
2022-12-25T16:01:01.669Z,48.00
2022-12-25T16:03:03.397Z,49.00
2022-12-25T16:05:10.285Z,49.70
2022-12-25T16:07:15.586Z,50.10
2022-12-25T16:09:19.984Z,50.30
2022-12-25T16:11:21.677Z,50.10
2022-12-25T16:13:23.461Z,50.20
2022-12-25T16:15:25.084Z,50.20
2022-12-25T16:17:26.749Z,50.40
2022-12-25T16:19:28.358Z,50.40
2022-12-25T16:21:40.028Z,50.40
2022-12-25T16:23:41.680Z,50.40
2022-12-25T16:25:43.308Z,50.50
2022-12-25T16:27:45.683Z,50.40
2022-12-25T16:29:47.488Z,50.40
2022-12-25T16:31:49.138Z,50.40
2022-12-25T16:33:50.891Z,50.40
2022-12-25T16:35:52.554Z,50.40
2022-12-25T16:37:54.217Z,51.00
2022-12-25T16:39:55.921Z,50.40
2022-12-25T16:41:57.677Z,50.40
2022-12-25T16:43:59.315Z,50.40
2022-12-25T16:46:01.030Z,50.40
2022-12-25T16:48:02.758Z,50.40
2022-12-25T16:50:06.184Z,50.40
2022-12-25T16:52:07.827Z,50.40
2022-12-25T16:54:09.496Z,50.30
2022-12-25T16:56:14.678Z,50.30
2022-12-25T16:58:16.431Z,50.20
2022-12-25T17:00:18.700Z,50.30
2022-12-25T17:02:21.635Z,50.20
2022-12-25T17:04:23.664Z,50.20
2022-12-25T17:06:28.188Z,50.10
2022-12-25T17:08:30.106Z,50.20
2022-12-25T17:10:32.441Z,50.10
2022-12-25T17:12:34.239Z,50.00
2022-12-25T17:14:36.709Z,50.00
2022-12-25T17:16:38.610Z,50.00
2022-12-25T17:18:40.274Z,50.00
2022-12-25T17:20:49.875Z,49.90
2022-12-25T17:22:51.603Z,49.90
2022-12-25T17:24:53.236Z,49.50
2022-12-25T17:26:55.159Z,49.70
2022-12-25T17:28:57.247Z,49.90
2022-12-25T17:31:06.533Z,49.80
2022-12-25T17:33:08.209Z,49.80
2022-12-25T17:35:09.907Z,49.80
2022-12-25T17:37:11.540Z,49.70
2022-12-25T17:39:13.270Z,49.80
2022-12-25T17:41:16.748Z,50.10
2022-12-25T17:43:21.020Z,49.90
2022-12-25T17:45:22.932Z,50.60
2022-12-25T17:47:24.678Z,50.00
2022-12-25T17:49:26.511Z,49.90
2022-12-25T17:51:30.311Z,49.90
2022-12-25T17:53:34.298Z,49.80
2022-12-25T17:55:38.817Z,49.80
2022-12-25T17:57:41.414Z,49.80
2022-12-25T17:59:43.221Z,49.70
2022-12-25T18:01:45.780Z,49.70
2022-12-25T18:03:48.152Z,49.60
2022-12-25T18:05:50.060Z,49.70
2022-12-25T18:07:51.740Z,50.60
2022-12-25T18:09:53.397Z,50.60
2022-12-25T18:11:55.301Z,50.70
2022-12-25T18:13:58.216Z,50.70
2022-12-25T18:16:04.557Z,50.70
2022-12-25T18:18:07.034Z,50.90
2022-12-25T18:20:09.074Z,50.90
2022-12-25T18:22:10.705Z,50.80
2022-12-25T18:24:12.410Z,50.90
2022-12-25T18:26:16.323Z,50.90
2022-12-25T18:28:17.951Z,50.90
2022-12-25T18:30:20.284Z,51.00
2022-12-25T18:32:27.858Z,51.00
2022-12-25T18:34:29.863Z,51.00
2022-12-25T18:36:32.029Z,51.10
2022-12-25T18:38:33.708Z,51.10
2022-12-25T18:40:46.642Z,51.10
2022-12-25T18:42:52.275Z,51.20
2022-12-25T18:44:55.453Z,51.20
2022-12-25T18:46:57.111Z,51.10
2022-12-25T18:48:58.797Z,51.30
2022-12-25T18:51:03.121Z,51.30
2022-12-25T18:53:05.561Z,51.20
2022-12-25T18:55:08.018Z,51.20
2022-12-25T18:57:09.624Z,51.00
2022-12-25T18:59:11.936Z,51.00
2022-12-25T19:01:20.043Z,51.10
2022-12-25T19:03:21.839Z,51.00
2022-12-25T19:05:23.627Z,51.00
2022-12-25T19:07:25.242Z,50.90
2022-12-25T19:09:26.923Z,50.70
2022-12-25T19:11:28.571Z,50.70
2022-12-25T19:13:33.279Z,50.50
2022-12-25T19:15:35.680Z,50.40
2022-12-25T19:17:37.461Z,50.30
2022-12-25T19:19:39.270Z,50.30
2022-12-25T19:21:41.471Z,50.20
2022-12-25T19:23:43.134Z,50.10
2022-12-25T19:25:44.880Z,50.10
2022-12-25T19:27:46.559Z,50.10
2022-12-25T19:29:48.328Z,50.00
2022-12-25T19:31:49.980Z,50.00
2022-12-25T19:33:51.708Z,50.00
2022-12-25T19:35:53.441Z,50.00
2022-12-25T19:37:55.137Z,49.90
2022-12-25T19:39:57.292Z,50.00
2022-12-25T19:41:58.957Z,49.90
2022-12-25T19:44:01.175Z,49.90
2022-12-25T19:46:03.795Z,49.80
2022-12-25T19:48:05.759Z,49.80
2022-12-25T19:50:07.770Z,48.90
2022-12-25T19:52:13.625Z,49.50
2022-12-25T19:54:18.800Z,49.70
2022-12-25T19:56:20.436Z,49.70
2022-12-25T19:58:23.305Z,49.70
2022-12-25T20:00:24.941Z,49.60
2022-12-25T20:02:27.060Z,49.60
2022-12-25T20:04:28.886Z,49.90
2022-12-25T20:06:32.809Z,50.00
2022-12-25T20:08:34.529Z,50.50
2022-12-25T20:10:41.825Z,50.50
2022-12-25T20:12:44.389Z,50.60
2022-12-25T20:14:46.565Z,51.40
2022-12-25T20:16:48.317Z,50.90
2022-12-25T20:18:50.949Z,51.10
2022-12-25T20:21:01.022Z,51.10
2022-12-25T20:23:02.731Z,51.20
2022-12-25T20:25:08.957Z,51.20
2022-12-25T20:27:10.701Z,51.20
2022-12-25T20:29:12.399Z,51.20
2022-12-25T20:31:29.877Z,51.10
2022-12-25T20:33:31.577Z,51.10
2022-12-25T20:35:33.345Z,51.10
2022-12-25T20:37:35.057Z,51.10
2022-12-25T20:39:36.712Z,51.10
2022-12-25T20:41:39.750Z,51.10
2022-12-25T20:43:45.482Z,51.00
2022-12-25T20:45:51.225Z,51.60
2022-12-25T20:47:52.848Z,51.00
2022-12-25T20:49:54.616Z,51.00
2022-12-25T20:52:01.355Z,51.00
2022-12-25T20:54:09.142Z,50.90
2022-12-25T20:56:13.436Z,51.00
2022-12-25T20:58:16.901Z,51.10
2022-12-25T21:00:18.633Z,51.00
2022-12-25T21:02:34.397Z,51.00
2022-12-25T21:04:38.044Z,50.90
2022-12-25T21:06:39.953Z,50.90
2022-12-25T21:08:41.749Z,50.80
2022-12-25T21:10:46.132Z,50.80
2022-12-25T21:12:47.744Z,50.70
2022-12-25T21:14:49.445Z,50.70
2022-12-25T21:16:51.161Z,51.40
2022-12-25T21:18:53.828Z,50.70
2022-12-25T21:20:58.151Z,50.50
2022-12-25T21:22:59.809Z,50.50
2022-12-25T21:25:01.793Z,50.40
2022-12-25T21:27:03.574Z,50.30
2022-12-25T21:29:05.223Z,50.40
2022-12-25T21:31:07.781Z,50.40
2022-12-25T21:33:30.926Z,50.40
2022-12-25T21:35:36.645Z,50.30
2022-12-25T21:37:38.335Z,50.20
2022-12-25T21:39:40.089Z,50.20
2022-12-25T21:41:42.224Z,50.20
2022-12-25T21:43:43.929Z,50.20
2022-12-25T21:45:45.636Z,50.20
2022-12-25T21:48:02.096Z,50.10
2022-12-25T21:50:23.388Z,50.00
2022-12-25T21:52:25.036Z,50.00
2022-12-25T21:54:26.665Z,50.00
2022-12-25T21:56:30.336Z,50.00
2022-12-25T21:58:31.996Z,50.00
2022-12-25T22:00:33.580Z,50.00
2022-12-25T22:02:35.335Z,50.50
2022-12-25T22:04:37.800Z,50.00
2022-12-25T22:06:58.065Z,49.90
2022-12-25T22:08:59.784Z,49.90
2022-12-25T22:11:04.815Z,50.00
2022-12-25T22:13:24.950Z,50.00
2022-12-25T22:15:45.110Z,50.00
2022-12-25T22:18:05.394Z,50.00
2022-12-25T22:20:09.427Z,50.00
2022-12-25T22:22:11.831Z,50.00
2022-12-25T22:24:13.476Z,50.10
2022-12-25T22:26:20.623Z,50.10
2022-12-25T22:28:22.876Z,50.10
2022-12-25T22:30:27.415Z,50.10
2022-12-25T22:32:29.205Z,50.10
2022-12-25T22:34:31.031Z,50.10
2022-12-25T22:36:32.659Z,50.10
2022-12-25T22:38:34.831Z,50.20
2022-12-25T22:40:37.711Z,50.20
2022-12-25T22:42:39.356Z,50.10
2022-12-25T22:44:41.073Z,50.20
2022-12-25T22:46:42.808Z,50.20
2022-12-25T22:48:44.473Z,50.30
2022-12-25T22:50:46.229Z,50.30
2022-12-25T22:52:47.911Z,50.20
2022-12-25T22:54:49.505Z,50.30
2022-12-25T22:56:53.079Z,50.30
2022-12-25T22:58:56.326Z,50.30
2022-12-25T23:00:57.978Z,50.30
2022-12-25T23:02:59.816Z,50.40
2022-12-25T23:05:02.360Z,50.50
2022-12-25T23:07:05.098Z,50.50
2022-12-25T23:09:08.801Z,50.60
2022-12-25T23:11:10.408Z,50.50
2022-12-25T23:13:30.957Z,50.50
2022-12-25T23:15:32.743Z,50.50
2022-12-25T23:17:53.295Z,50.50
2022-12-25T23:20:14.311Z,50.50
2022-12-25T23:22:34.649Z,50.50
2022-12-25T23:24:55.329Z,50.50
2022-12-25T23:26:57.949Z,50.50
2022-12-25T23:29:18.414Z,50.50
2022-12-25T23:31:25.380Z,50.50
2022-12-25T23:33:27.033Z,50.50
2022-12-25T23:35:29.865Z,50.50
2022-12-25T23:37:31.560Z,50.50
2022-12-25T23:39:33.840Z,50.50
2022-12-25T23:41:35.545Z,50.50
2022-12-25T23:43:37.201Z,50.50
2022-12-25T23:45:38.859Z,50.40
2022-12-25T23:47:40.498Z,50.50
2022-12-25T23:49:42.199Z,50.50
2022-12-25T23:51:45.750Z,50.50
2022-12-25T23:53:47.564Z,51.20
2022-12-25T23:55:55.697Z,50.50
2022-12-25T23:57:57.636Z,50.50
2022-12-25T23:59:59.228Z,50.50
